createdAt,value
2017-06-24T00:02:08.065Z,17.10
2017-06-24T00:04:36.487Z,17.47
2017-06-24T00:07:04.569Z,15.07
2017-06-24T00:09:32.957Z,14.63
2017-06-24T00:12:01.056Z,16.43
2017-06-24T00:14:28.680Z,16.30
2017-06-24T00:16:57.108Z,16.87
2017-06-24T00:19:25.431Z,16.67
2017-06-24T00:21:53.091Z,15.27
2017-06-24T00:24:21.323Z,16.50
2017-06-24T00:26:49.370Z,15.80
2017-06-24T00:29:18.538Z,15.27
2017-06-24T00:31:48.253Z,15.10
2017-06-24T00:34:18.778Z,15.70
2017-06-24T00:36:47.091Z,17.80
2017-06-24T00:39:14.548Z,17.50
2017-06-24T00:41:42.827Z,17.10
2017-06-24T00:44:11.003Z,16.77
2017-06-24T00:46:38.858Z,16.20
2017-06-24T00:49:07.226Z,17.00
2017-06-24T00:51:35.523Z,17.87
2017-06-24T00:54:03.434Z,16.47
2017-06-24T00:56:31.840Z,16.20
2017-06-24T00:58:59.811Z,15.53
2017-06-24T01:01:28.272Z,17.10
2017-06-24T01:03:56.743Z,15.50
2017-06-24T01:06:25.351Z,15.70
2017-06-24T01:08:53.809Z,17.47
2017-06-24T01:11:22.298Z,17.40
2017-06-24T01:13:50.168Z,16.70
2017-06-24T01:16:17.998Z,17.07
2017-06-24T01:18:45.696Z,17.30
2017-06-24T01:21:13.342Z,17.00
2017-06-24T01:23:41.807Z,16.10
2017-06-24T01:26:09.954Z,17.80
2017-06-24T01:28:38.740Z,16.90
2017-06-24T01:31:06.920Z,18.47
2017-06-24T01:33:35.920Z,16.40
2017-06-24T01:36:04.823Z,16.60
2017-06-24T01:38:33.895Z,16.80
2017-06-24T01:41:02.191Z,16.67
2017-06-24T01:43:31.285Z,17.80
2017-06-24T01:45:59.671Z,17.47
2017-06-24T01:48:27.949Z,17.70
2017-06-24T01:50:57.346Z,18.00
2017-06-24T01:53:26.264Z,17.13
2017-06-24T01:55:55.181Z,17.43
2017-06-24T01:58:23.875Z,17.23
2017-06-24T02:00:52.216Z,17.50
2017-06-24T02:03:20.811Z,17.23
2017-06-24T02:05:48.767Z,18.40
2017-06-24T02:08:16.518Z,18.63
2017-06-24T02:10:44.138Z,17.60
2017-06-24T02:13:12.000Z,18.60
2017-06-24T02:15:40.632Z,18.80
2017-06-24T02:18:09.067Z,19.33
2017-06-24T02:20:37.279Z,16.33
2017-06-24T02:23:05.571Z,19.80
2017-06-24T02:25:34.070Z,19.50
2017-06-24T02:28:02.655Z,17.90
2017-06-24T02:30:31.626Z,18.17
2017-06-24T02:33:00.134Z,17.90
2017-06-24T02:35:28.888Z,17.90
2017-06-24T02:37:57.175Z,18.27
2017-06-24T02:40:26.090Z,17.87
2017-06-24T02:42:53.839Z,17.60
2017-06-24T02:45:22.390Z,17.83
2017-06-24T02:47:50.772Z,17.50
2017-06-24T02:50:18.692Z,18.53
2017-06-24T02:52:47.172Z,19.90
2017-06-24T02:55:15.511Z,18.83
2017-06-24T02:57:43.803Z,18.33
2017-06-24T03:00:12.699Z,17.97
2017-06-24T03:02:41.219Z,18.13
2017-06-24T03:05:09.868Z,19.23
2017-06-24T03:07:38.762Z,17.50
2017-06-24T03:10:07.112Z,17.90
2017-06-24T03:12:43.682Z,18.40
2017-06-24T03:15:11.371Z,19.40
2017-06-24T03:17:39.962Z,19.37
2017-06-24T03:20:08.116Z,18.13
2017-06-24T03:22:36.873Z,19.07
2017-06-24T03:25:04.805Z,18.33
2017-06-24T03:27:33.063Z,17.50
2017-06-24T03:30:01.095Z,18.00
2017-06-24T03:32:30.002Z,17.80
2017-06-24T03:34:58.518Z,17.73
2017-06-24T03:37:26.728Z,17.83
2017-06-24T03:39:54.976Z,18.80
2017-06-24T03:42:23.215Z,19.63
2017-06-24T03:44:51.528Z,17.10
2017-06-24T03:47:19.079Z,19.27
2017-06-24T03:49:49.205Z,18.00
2017-06-24T03:52:18.615Z,18.87
2017-06-24T03:54:47.492Z,18.27
2017-06-24T03:57:15.740Z,18.27
2017-06-24T03:59:43.975Z,19.00
2017-06-24T04:02:12.724Z,18.80
2017-06-24T04:04:41.636Z,19.20
2017-06-24T04:07:10.867Z,17.97
2017-06-24T04:09:39.013Z,20.50
2017-06-24T04:12:07.391Z,18.70
2017-06-24T04:14:36.318Z,20.90
2017-06-24T04:17:05.068Z,19.80
2017-06-24T04:19:32.522Z,20.83
2017-06-24T04:22:01.100Z,20.37
2017-06-24T04:24:29.395Z,20.20
2017-06-24T04:26:57.179Z,19.23
2017-06-24T04:29:25.375Z,19.77
2017-06-24T04:31:52.988Z,21.07
2017-06-24T04:34:21.884Z,20.37
2017-06-24T04:36:51.614Z,20.20
2017-06-24T04:39:19.712Z,21.07
2017-06-24T04:41:48.384Z,21.00
2017-06-24T04:44:16.299Z,20.23
2017-06-24T04:46:44.499Z,22.23
2017-06-24T04:49:14.927Z,21.30
2017-06-24T04:51:44.229Z,20.60
2017-06-24T04:54:12.470Z,19.80
2017-06-24T04:56:40.275Z,20.87
2017-06-24T04:59:08.488Z,20.37
2017-06-24T05:01:36.725Z,20.90
2017-06-24T05:04:05.720Z,19.33
2017-06-24T05:06:34.843Z,19.97
2017-06-24T05:09:04.418Z,19.57
2017-06-24T05:11:32.495Z,19.03
2017-06-24T05:14:01.389Z,19.57
2017-06-24T05:16:30.091Z,18.87
2017-06-24T05:18:58.762Z,18.97
2017-06-24T05:21:26.988Z,19.53
2017-06-24T05:23:55.220Z,17.40
2017-06-24T05:26:23.716Z,18.07
2017-06-24T05:28:51.975Z,19.47
2017-06-24T05:31:20.353Z,17.17
2017-06-24T05:33:49.139Z,17.80
2017-06-24T05:36:18.621Z,19.20
2017-06-24T05:38:46.731Z,18.07
2017-06-24T05:41:15.102Z,18.80
2017-06-24T05:43:42.950Z,17.27
2017-06-24T05:46:10.748Z,17.60
2017-06-24T05:48:38.828Z,18.10
2017-06-24T05:51:07.391Z,17.73
2017-06-24T05:53:35.770Z,18.60
2017-06-24T05:56:04.463Z,19.17
2017-06-24T05:58:32.530Z,18.03
2017-06-24T06:01:01.006Z,18.03
2017-06-24T06:03:30.214Z,18.73
2017-06-24T06:05:58.340Z,19.23
2017-06-24T06:08:27.248Z,18.00
2017-06-24T06:10:55.965Z,18.83
2017-06-24T06:13:25.275Z,20.00
2017-06-24T06:15:53.422Z,17.40
2017-06-24T06:18:22.087Z,18.67
2017-06-24T06:20:49.931Z,17.80
2017-06-24T06:23:18.254Z,18.20
2017-06-24T06:25:47.890Z,18.33
2017-06-24T06:28:17.164Z,18.60
2017-06-24T06:30:46.376Z,17.50
2017-06-24T06:33:13.831Z,16.13
2017-06-24T06:35:41.975Z,18.50
2017-06-24T06:38:10.023Z,17.00
2017-06-24T06:40:38.464Z,17.93
2017-06-24T06:43:06.658Z,18.03
2017-06-24T06:45:35.632Z,16.67
2017-06-24T06:48:03.410Z,18.80
2017-06-24T06:50:32.087Z,16.70
2017-06-24T06:53:00.290Z,17.57
2017-06-24T06:55:28.316Z,16.47
2017-06-24T06:57:56.240Z,18.80
2017-06-24T07:00:24.793Z,17.83
2017-06-24T07:02:53.331Z,18.20
2017-06-24T07:05:21.853Z,19.50
2017-06-24T07:07:50.539Z,17.00
2017-06-24T07:10:18.921Z,18.60
2017-06-24T07:12:47.339Z,16.27
2017-06-24T07:15:15.872Z,16.00
2017-06-24T07:17:44.089Z,18.53
2017-06-24T07:20:12.536Z,15.93
2017-06-24T07:22:41.535Z,17.17
2017-06-24T07:25:09.814Z,17.23
2017-06-24T07:27:38.836Z,16.27
2017-06-24T07:30:06.896Z,16.40
2017-06-24T07:32:34.767Z,14.37
2017-06-24T07:35:02.926Z,14.70
2017-06-24T07:37:31.408Z,15.57
2017-06-24T07:39:59.788Z,15.57
2017-06-24T07:42:28.499Z,14.20
2017-06-24T07:44:56.856Z,14.53
2017-06-24T07:47:24.539Z,14.00
2017-06-24T07:49:52.891Z,14.63
2017-06-24T07:52:20.779Z,14.90
2017-06-24T07:54:48.470Z,13.00
2017-06-24T07:57:16.636Z,14.53
2017-06-24T07:59:44.746Z,13.53
2017-06-24T08:02:12.574Z,13.97
2017-06-24T08:04:41.163Z,11.83
2017-06-24T08:07:08.995Z,13.73
2017-06-24T08:09:37.066Z,13.20
2017-06-24T08:12:06.220Z,15.10
2017-06-24T08:14:34.846Z,14.33
2017-06-24T08:17:03.377Z,15.30
2017-06-24T08:19:31.199Z,14.07
2017-06-24T08:21:59.097Z,13.00
2017-06-24T08:24:27.510Z,12.50
2017-06-24T08:26:55.714Z,14.27
2017-06-24T08:29:24.412Z,12.37
2017-06-24T08:31:53.110Z,12.73
2017-06-24T08:34:21.512Z,13.40
2017-06-24T08:36:49.744Z,12.50
2017-06-24T08:39:18.025Z,12.67
2017-06-24T08:41:47.109Z,12.30
2017-06-24T08:44:16.199Z,13.30
2017-06-24T08:46:44.398Z,12.03
2017-06-24T08:49:12.985Z,11.60
2017-06-24T08:51:40.758Z,11.50
2017-06-24T08:54:09.101Z,11.37
2017-06-24T08:56:37.011Z,10.10
2017-06-24T08:59:08.923Z,10.50
2017-06-24T09:01:37.659Z,10.40
2017-06-24T09:04:05.510Z,10.40
2017-06-24T09:06:33.516Z,10.97
2017-06-24T09:09:01.466Z,11.27
2017-06-24T09:11:29.734Z,10.57
2017-06-24T09:13:57.804Z,10.30
2017-06-24T09:16:27.636Z,10.13
2017-06-24T09:18:56.100Z,11.50
2017-06-24T09:21:24.279Z,10.50
2017-06-24T09:23:52.858Z,10.30
2017-06-24T09:26:21.216Z,10.10
2017-06-24T09:28:48.828Z,10.27
2017-06-24T09:31:17.074Z,10.30
2017-06-24T09:33:44.530Z,9.57
2017-06-24T09:36:12.195Z,10.70
2017-06-24T09:38:40.679Z,9.97
2017-06-24T09:41:09.365Z,10.13
2017-06-24T09:43:37.438Z,10.13
2017-06-24T09:46:06.592Z,9.80
2017-06-24T09:48:34.964Z,10.43
2017-06-24T09:51:03.322Z,10.90
2017-06-24T09:53:31.879Z,11.17
2017-06-24T09:55:59.951Z,10.23
2017-06-24T09:58:28.331Z,11.13
2017-06-24T10:00:56.734Z,10.90
2017-06-24T10:03:24.834Z,10.40
2017-06-24T10:05:53.070Z,10.30
2017-06-24T10:08:20.695Z,10.10
2017-06-24T10:10:49.535Z,10.10
2017-06-24T10:13:17.278Z,9.70
2017-06-24T10:15:45.443Z,9.15
2017-06-24T10:18:13.382Z,10.70
2017-06-24T10:20:41.166Z,11.50
2017-06-24T10:23:08.703Z,10.20
2017-06-24T10:25:36.619Z,10.93
2017-06-24T10:28:05.239Z,10.33
2017-06-24T10:30:33.127Z,9.10
2017-06-24T10:33:01.142Z,9.33
2017-06-24T10:35:28.958Z,10.30
2017-06-24T10:37:57.925Z,8.93
2017-06-24T10:40:27.512Z,8.80
2017-06-24T10:42:55.667Z,9.50
2017-06-24T10:45:23.523Z,9.23
2017-06-24T10:47:51.418Z,9.53
2017-06-24T10:50:19.488Z,9.80
2017-06-24T10:52:48.584Z,9.77
2017-06-24T10:55:16.576Z,8.77
2017-06-24T10:57:44.464Z,8.97
2017-06-24T11:00:12.199Z,9.50
2017-06-24T11:02:41.275Z,8.80
2017-06-24T11:05:08.947Z,7.97
2017-06-24T11:07:37.314Z,9.57
2017-06-24T11:10:05.614Z,9.67
2017-06-24T11:12:34.601Z,9.67
2017-06-24T11:15:03.044Z,8.97
2017-06-24T11:17:31.231Z,8.77
2017-06-24T11:19:59.131Z,8.37
2017-06-24T11:22:27.511Z,7.97
2017-06-24T11:24:55.899Z,9.27
2017-06-24T11:27:24.449Z,8.30
2017-06-24T11:29:53.097Z,7.70
2017-06-24T11:32:21.693Z,8.87
2017-06-24T11:34:50.160Z,8.60
2017-06-24T11:37:19.111Z,8.33
2017-06-24T11:39:46.679Z,8.80
2017-06-24T11:42:16.091Z,8.63
2017-06-24T11:44:44.482Z,8.93
2017-06-24T11:47:12.535Z,9.40
2017-06-24T11:49:40.380Z,9.27
2017-06-24T11:52:09.326Z,9.60
2017-06-24T11:54:37.492Z,9.20
2017-06-24T11:57:05.564Z,9.47
2017-06-24T11:59:33.583Z,9.70
2017-06-24T12:02:01.911Z,9.00
2017-06-24T12:04:30.303Z,9.40
2017-06-24T12:06:58.163Z,8.93
2017-06-24T12:09:27.036Z,8.63
2017-06-24T12:11:55.099Z,9.50
2017-06-24T12:14:24.081Z,9.20
2017-06-24T12:16:52.315Z,8.80
2017-06-24T12:19:21.263Z,8.50
2017-06-24T12:21:49.547Z,8.40
2017-06-24T12:24:17.782Z,8.57
2017-06-24T12:26:47.097Z,8.47
2017-06-24T12:29:15.300Z,9.10
2017-06-24T12:31:43.676Z,10.00
2017-06-24T12:34:11.542Z,9.00
2017-06-24T12:36:39.315Z,9.37
2017-06-24T12:39:07.358Z,8.80
2017-06-24T12:41:35.411Z,9.37
2017-06-24T12:44:04.186Z,8.97
2017-06-24T12:46:32.060Z,10.57
2017-06-24T12:48:59.615Z,9.60
2017-06-24T12:51:28.707Z,8.63
2017-06-24T12:53:57.535Z,9.90
2017-06-24T12:56:25.539Z,9.60
2017-06-24T12:58:54.730Z,9.30
2017-06-24T13:01:23.006Z,9.17
2017-06-24T13:03:50.770Z,8.27
2017-06-24T13:06:18.876Z,10.03
2017-06-24T13:08:47.640Z,9.13
2017-06-24T13:11:15.920Z,10.03
2017-06-24T13:13:44.302Z,10.20
2017-06-24T13:16:12.670Z,10.70
2017-06-24T13:18:40.339Z,10.17
2017-06-24T13:21:08.911Z,10.43
2017-06-24T13:23:37.195Z,10.90
2017-06-24T13:26:05.241Z,9.60
2017-06-24T13:28:33.431Z,9.50
2017-06-24T13:31:01.231Z,9.90
2017-06-24T13:33:29.735Z,11.10
2017-06-24T13:35:57.760Z,10.30
2017-06-24T13:38:26.686Z,10.63
2017-06-24T13:40:55.854Z,11.03
2017-06-24T13:43:25.378Z,10.80
2017-06-24T13:45:54.150Z,10.67
2017-06-24T13:48:22.188Z,10.60
2017-06-24T13:50:50.712Z,10.70
2017-06-24T13:53:19.782Z,11.00
2017-06-24T13:55:48.479Z,11.30
2017-06-24T13:58:16.216Z,11.33
2017-06-24T14:00:44.118Z,12.10
2017-06-24T14:03:13.020Z,10.70
2017-06-24T14:05:42.602Z,10.90
2017-06-24T14:08:10.795Z,10.77
2017-06-24T14:10:38.565Z,11.60
2017-06-24T14:13:06.491Z,10.47
2017-06-24T14:15:34.453Z,11.23
2017-06-24T14:18:02.510Z,10.70
2017-06-24T14:20:30.286Z,10.57
2017-06-24T14:22:58.800Z,10.47
2017-06-24T14:25:26.492Z,11.03
2017-06-24T14:27:54.583Z,10.40
2017-06-24T14:30:22.663Z,10.43
2017-06-24T14:32:50.452Z,10.40
2017-06-24T14:35:18.519Z,10.40
2017-06-24T14:37:46.216Z,10.17
2017-06-24T14:40:14.218Z,9.70
2017-06-24T14:42:42.573Z,10.87
2017-06-24T14:45:10.572Z,10.23
2017-06-24T14:47:38.603Z,10.97
2017-06-24T14:50:06.085Z,9.50
2017-06-24T14:52:34.134Z,10.20
2017-06-24T14:55:01.740Z,10.20
2017-06-24T14:57:29.579Z,9.33
2017-06-24T14:59:57.924Z,11.30
2017-06-24T15:02:25.814Z,10.37
2017-06-24T15:04:53.282Z,10.60
2017-06-24T15:07:20.762Z,9.97
2017-06-24T15:09:48.707Z,10.07
2017-06-24T15:12:16.407Z,9.50
2017-06-24T15:14:45.147Z,9.83
2017-06-24T15:17:13.243Z,8.90
2017-06-24T15:19:40.804Z,9.03
2017-06-24T15:22:08.372Z,9.50
2017-06-24T15:24:35.843Z,8.40
2017-06-24T15:27:03.539Z,9.00
2017-06-24T15:29:31.140Z,10.00
2017-06-24T15:31:58.850Z,10.13
2017-06-24T15:34:27.457Z,9.33
2017-06-24T15:36:55.408Z,9.63
2017-06-24T15:39:23.067Z,9.67
2017-06-24T15:41:50.635Z,9.53
2017-06-24T15:44:19.126Z,8.93
2017-06-24T15:46:46.568Z,9.90
2017-06-24T15:49:14.042Z,9.93
2017-06-24T15:51:42.067Z,9.20
2017-06-24T15:54:09.583Z,9.27
2017-06-24T15:56:37.315Z,9.30
2017-06-24T15:59:04.990Z,9.60
2017-06-24T16:01:33.082Z,10.20
2017-06-24T16:04:01.198Z,8.83
2017-06-24T16:06:29.189Z,9.10
2017-06-24T16:08:56.643Z,9.00
2017-06-24T16:11:24.487Z,9.37
2017-06-24T16:13:52.562Z,8.50
2017-06-24T16:16:20.819Z,10.03
2017-06-24T16:18:48.842Z,8.93
2017-06-24T16:21:16.507Z,9.20
2017-06-24T16:23:44.979Z,9.57
2017-06-24T16:26:13.227Z,8.70
2017-06-24T16:28:41.196Z,9.23
2017-06-24T16:31:09.332Z,9.27
2017-06-24T16:33:37.081Z,9.43
2017-06-24T16:36:04.702Z,8.93
2017-06-24T16:38:32.671Z,7.87
2017-06-24T16:41:00.715Z,8.97
2017-06-24T18:04:44.047Z,8.70
2017-06-24T18:07:10.886Z,9.30
2017-06-24T18:09:37.522Z,8.20
2017-06-24T18:12:04.362Z,8.03
2017-06-24T18:14:31.026Z,8.37
2017-06-24T18:16:57.882Z,8.20
2017-06-24T18:19:24.568Z,8.20
2017-06-24T18:21:51.489Z,8.50
2017-06-24T18:24:18.151Z,7.83
2017-06-24T18:26:45.003Z,8.03
2017-06-24T18:29:11.637Z,8.13
2017-06-24T18:31:38.265Z,8.97
2017-06-24T18:34:05.607Z,8.30
2017-06-24T18:36:32.754Z,8.60
2017-06-24T18:39:01.086Z,9.23
2017-06-24T18:51:56.388Z,8.23
2017-06-24T18:54:24.429Z,8.47
2017-06-24T18:56:52.922Z,7.97
2017-06-24T18:59:20.756Z,7.27
2017-06-24T19:01:48.363Z,7.90
2017-06-24T19:04:16.428Z,7.27
2017-06-24T19:06:43.895Z,7.77
2017-06-24T19:09:11.370Z,8.00
2017-06-24T19:11:39.491Z,8.60
2017-06-24T19:14:07.181Z,8.50
2017-06-24T19:16:34.659Z,7.27
2017-06-24T19:19:02.186Z,8.30
2017-06-24T19:21:29.656Z,7.73
2017-06-24T19:23:57.119Z,7.83
2017-06-24T19:26:25.291Z,7.80
2017-06-24T19:28:53.870Z,8.10
2017-06-24T19:31:21.306Z,8.27
2017-06-24T19:33:49.312Z,8.03
2017-06-24T19:36:17.492Z,7.03
2017-06-24T19:38:45.163Z,8.30
2017-06-24T19:41:13.261Z,8.40
2017-06-24T19:43:41.793Z,8.90
2017-06-24T19:46:09.761Z,8.53
2017-06-24T19:48:37.942Z,8.40
2017-06-24T19:51:06.220Z,7.93
2017-06-24T19:53:34.567Z,8.60
2017-06-24T19:56:02.439Z,7.97
2017-06-24T19:58:30.283Z,7.97
2017-06-24T20:00:58.418Z,8.60
2017-06-24T20:03:26.947Z,10.23
2017-06-24T20:05:54.910Z,10.80
2017-06-24T20:08:23.134Z,12.90
2017-06-24T20:10:51.323Z,13.80
2017-06-24T20:13:19.595Z,13.43
2017-06-24T20:15:47.662Z,13.87
2017-06-24T20:18:15.872Z,14.70
2017-06-24T20:20:44.220Z,14.10
2017-06-24T20:23:12.004Z,14.70
2017-06-24T20:25:41.028Z,15.80
2017-06-24T20:28:08.775Z,15.27
2017-06-24T20:30:36.723Z,15.30
2017-06-24T20:33:05.271Z,15.57
2017-06-24T20:35:33.360Z,15.43
2017-06-24T20:38:01.190Z,14.23
2017-06-24T20:40:29.312Z,16.43
2017-06-24T20:42:57.699Z,15.67
2017-06-24T20:45:27.083Z,14.57
2017-06-24T20:47:55.175Z,14.50
2017-06-24T20:50:23.047Z,15.00
2017-06-24T20:52:50.902Z,15.50
2017-06-24T20:55:18.974Z,16.10
2017-06-24T20:57:46.763Z,15.90
2017-06-24T21:00:14.936Z,14.87
2017-06-24T21:02:42.887Z,15.53
2017-06-24T21:05:11.082Z,16.57
2017-06-24T21:07:39.034Z,14.57
2017-06-24T21:10:07.162Z,14.80
2017-06-24T21:12:35.598Z,15.40
2017-06-24T21:15:03.885Z,14.90
2017-06-24T21:17:31.673Z,16.10
2017-06-24T21:20:00.621Z,15.07
2017-06-24T21:22:28.843Z,14.63
2017-06-24T21:24:58.647Z,14.67
2017-06-24T21:27:26.717Z,15.93
2017-06-24T21:29:55.402Z,14.93
2017-06-24T21:32:23.750Z,15.53
2017-06-24T21:34:52.051Z,15.17
2017-06-24T21:37:20.235Z,16.07
2017-06-24T21:39:50.143Z,16.33
2017-06-24T21:42:18.767Z,16.30
2017-06-24T21:44:46.690Z,15.30
2017-06-24T21:47:14.657Z,15.60
2017-06-24T21:49:42.714Z,15.83
2017-06-24T21:52:10.209Z,16.00
2017-06-24T21:54:38.447Z,16.03
2017-06-24T21:57:06.148Z,16.47
2017-06-24T21:59:34.211Z,16.60
2017-06-24T22:02:02.269Z,16.00
2017-06-24T22:04:30.543Z,16.13
2017-06-24T22:06:58.092Z,16.10
2017-06-24T22:09:26.066Z,17.13
2017-06-24T22:11:55.188Z,17.50
2017-06-24T22:14:23.139Z,17.40
2017-06-24T22:16:51.407Z,17.60
2017-06-24T22:19:19.686Z,18.57
2017-06-24T22:21:47.762Z,18.13
2017-06-24T22:24:16.601Z,18.47
2017-06-24T22:26:44.759Z,18.60
2017-06-24T22:29:13.091Z,17.13
2017-06-24T22:31:40.840Z,17.87
2017-06-24T22:34:09.834Z,17.20
2017-06-24T22:36:38.118Z,18.03
2017-06-24T22:39:06.222Z,18.90
2017-06-24T22:41:34.774Z,17.80
2017-06-24T22:44:03.418Z,18.27
2017-06-24T22:46:31.289Z,18.33
2017-06-24T22:48:59.471Z,18.60
2017-06-24T22:51:28.083Z,18.43
2017-06-24T22:53:56.318Z,19.77
2017-06-24T22:56:24.360Z,17.60
2017-06-24T22:58:51.906Z,17.80
2017-06-24T23:01:20.653Z,18.90
2017-06-24T23:03:48.583Z,17.50
2017-06-24T23:06:17.189Z,17.60
2017-06-24T23:08:45.435Z,18.27
2017-06-24T23:11:13.822Z,19.17
2017-06-24T23:13:42.194Z,19.30
2017-06-24T23:16:10.258Z,18.80
2017-06-24T23:18:38.648Z,18.90
2017-06-24T23:21:07.208Z,19.07
2017-06-24T23:23:34.847Z,19.80
2017-06-24T23:26:03.143Z,18.37
2017-06-24T23:28:30.618Z,18.93
2017-06-24T23:30:58.115Z,19.80
2017-06-24T23:33:25.601Z,18.37
2017-06-24T23:35:53.068Z,18.07
2017-06-24T23:38:21.652Z,19.33
2017-06-24T23:40:50.895Z,18.40
2017-06-24T23:43:18.539Z,19.30
2017-06-24T23:45:46.538Z,19.50
2017-06-24T23:48:16.139Z,17.83
2017-06-24T23:50:45.428Z,18.30
2017-06-24T23:53:14.018Z,18.80
2017-06-24T23:55:42.506Z,18.67
2017-06-24T23:58:11.116Z,18.57
